createdAt,value
2023-03-26T00:00:43.860Z,10.37
2023-03-26T00:05:48.325Z,10.39
2023-03-26T00:10:53.034Z,10.37
2023-03-26T00:15:56.768Z,10.36
2023-03-26T00:21:01.045Z,10.31
2023-03-26T00:26:10.933Z,10.26
2023-03-26T00:31:16.431Z,10.15
2023-03-26T00:36:20.861Z,10.13
2023-03-26T00:41:32.370Z,10.11
2023-03-26T00:46:36.613Z,10.11
2023-03-26T00:51:39.976Z,10.09
2023-03-26T00:56:44.565Z,9.98
2023-03-26T01:01:47.904Z,9.93
2023-03-26T01:06:51.695Z,9.95
2023-03-26T01:11:56.725Z,9.94
2023-03-26T01:17:02.416Z,9.90
2023-03-26T01:22:07.464Z,9.93
2023-03-26T01:27:26.024Z,9.95
2023-03-26T01:32:45.039Z,9.94
2023-03-26T01:38:02.427Z,9.98
2023-03-26T01:43:13.331Z,9.95
2023-03-26T01:48:16.959Z,9.93
2023-03-26T01:53:20.455Z,9.90
2023-03-26T01:58:32.472Z,9.78
2023-03-26T02:03:43.391Z,9.83
2023-03-26T02:08:50.900Z,9.74
2023-03-26T02:13:56.074Z,9.59
2023-03-26T02:19:00.386Z,9.56
2023-03-26T02:24:04.354Z,9.53
2023-03-26T02:29:09.910Z,9.46
2023-03-26T02:34:13.201Z,9.40
2023-03-26T02:39:17.015Z,9.38
2023-03-26T02:44:21.686Z,9.38
2023-03-26T02:49:24.805Z,9.36
2023-03-26T02:54:28.354Z,9.30
2023-03-26T02:59:33.066Z,9.43
2023-03-26T03:04:36.304Z,9.49
2023-03-26T03:09:39.585Z,9.40
2023-03-26T03:14:44.291Z,9.42
2023-03-26T03:19:48.188Z,9.33
2023-03-26T03:24:52.339Z,9.22
2023-03-26T03:29:59.043Z,9.15
2023-03-26T03:35:02.428Z,9.26
2023-03-26T03:40:14.644Z,9.35
2023-03-26T03:45:20.243Z,9.37
2023-03-26T03:50:23.593Z,9.43
2023-03-26T03:55:27.737Z,9.43
2023-03-26T04:00:32.725Z,9.36
2023-03-26T04:05:36.531Z,9.24
2023-03-26T04:10:39.820Z,9.16
2023-03-26T04:15:45.717Z,9.15
2023-03-26T04:20:49.473Z,9.09
2023-03-26T04:25:55.810Z,9.09
2023-03-26T04:31:04.975Z,9.12
2023-03-26T04:36:08.869Z,9.13
2023-03-26T04:41:13.648Z,9.06
2023-03-26T04:46:21.898Z,8.99
2023-03-26T04:51:28.206Z,8.95
2023-03-26T04:56:41.134Z,8.94
2023-03-26T05:01:46.871Z,9.00
2023-03-26T05:06:50.073Z,9.19
2023-03-26T05:11:53.430Z,9.33
2023-03-26T05:16:58.274Z,9.43
2023-03-26T05:22:01.735Z,9.50
2023-03-26T05:27:05.041Z,9.59
2023-03-26T05:32:11.062Z,9.66
2023-03-26T05:37:14.249Z,9.71
2023-03-26T05:42:17.412Z,9.82
2023-03-26T05:47:22.255Z,9.95
2023-03-26T05:52:25.678Z,9.99
2023-03-26T05:57:31.032Z,10.02
2023-03-26T06:02:36.273Z,10.11
2023-03-26T06:07:39.870Z,10.15
2023-03-26T06:12:43.193Z,10.24
2023-03-26T06:17:48.449Z,10.26
2023-03-26T06:22:51.892Z,10.34
2023-03-26T06:27:55.082Z,10.41
2023-03-26T06:33:00.463Z,10.51
2023-03-26T06:38:04.452Z,10.62
2023-03-26T06:43:10.869Z,10.72
2023-03-26T06:48:16.084Z,10.81
2023-03-26T06:53:19.387Z,10.85
2023-03-26T06:58:23.028Z,10.93
2023-03-26T07:03:27.930Z,11.09
2023-03-26T07:08:32.592Z,11.26
2023-03-26T07:13:40.783Z,11.43
2023-03-26T07:18:49.625Z,11.58
2023-03-26T07:23:54.842Z,11.70
2023-03-26T07:29:16.389Z,11.81
2023-03-26T07:34:36.091Z,11.97
2023-03-26T07:39:47.974Z,12.15
2023-03-26T07:45:01.019Z,12.55
2023-03-26T07:50:07.735Z,14.00
2023-03-26T07:55:14.814Z,14.07
2023-03-26T08:00:22.284Z,14.00
2023-03-26T08:05:30.039Z,13.76
2023-03-26T08:10:42.376Z,13.67
2023-03-26T08:15:53.778Z,13.67
2023-03-26T08:21:06.344Z,13.78
2023-03-26T08:26:18.200Z,13.96
2023-03-26T08:31:33.077Z,13.96
2023-03-26T08:36:38.039Z,14.06
2023-03-26T08:42:34.974Z,14.12
2023-03-26T08:48:17.572Z,14.28
2023-03-26T08:53:38.906Z,14.43
2023-03-26T08:59:15.321Z,14.55
2023-03-26T09:04:50.004Z,14.64
2023-03-26T09:10:17.220Z,14.82
2023-03-26T09:15:50.445Z,15.13
2023-03-26T09:21:18.684Z,15.25
2023-03-26T09:26:47.594Z,15.42
2023-03-26T09:32:24.897Z,15.59
2023-03-26T09:37:56.813Z,16.07
2023-03-26T09:43:27.160Z,16.09
2023-03-26T09:49:05.706Z,16.21
2023-03-26T09:54:39.681Z,16.12
2023-03-26T10:00:06.629Z,16.11
2023-03-26T10:05:24.542Z,16.25
2023-03-26T10:10:37.197Z,16.41
2023-03-26T10:15:58.962Z,16.92
2023-03-26T10:21:07.218Z,17.09
2023-03-26T10:26:22.978Z,17.25
2023-03-26T10:31:42.168Z,17.21
2023-03-26T10:36:54.678Z,17.02
2023-03-26T10:42:07.800Z,16.77
2023-03-26T10:47:41.668Z,16.75
2023-03-26T10:53:10.492Z,16.86
2023-03-26T10:58:23.018Z,17.04
2023-03-26T11:03:51.964Z,17.13
2023-03-26T11:09:09.198Z,17.19
2023-03-26T11:14:34.994Z,17.04
2023-03-26T11:19:53.018Z,17.15
2023-03-26T11:25:22.820Z,17.03
2023-03-26T11:30:48.926Z,16.95
2023-03-26T11:36:00.835Z,16.73
2023-03-26T11:41:13.781Z,16.62
2023-03-26T11:46:20.522Z,16.43
2023-03-26T11:51:39.668Z,16.25
2023-03-26T11:57:05.498Z,16.19
2023-03-26T12:02:26.330Z,16.07
2023-03-26T12:07:35.174Z,15.75
2023-03-26T12:12:42.015Z,15.54
2023-03-26T12:17:45.433Z,15.49
2023-03-26T12:23:00.304Z,15.58
2023-03-26T12:28:06.235Z,15.67
2023-03-26T12:33:19.413Z,15.71
2023-03-26T12:38:33.461Z,15.67
2023-03-26T12:44:46.165Z,15.14
2023-03-26T12:49:08.914Z,14.40
2023-03-26T12:54:33.316Z,13.96
2023-03-26T12:59:48.853Z,13.80
2023-03-26T13:05:07.135Z,13.90
2023-03-26T13:10:51.520Z,14.07
2023-03-26T13:16:00.604Z,14.15
2023-03-26T13:21:12.097Z,14.32
2023-03-26T13:26:36.193Z,14.38
2023-03-26T13:31:46.510Z,14.24
2023-03-26T13:37:04.167Z,14.06
2023-03-26T13:42:24.262Z,13.91
2023-03-26T13:47:30.729Z,13.75
2023-03-26T13:52:40.714Z,13.65
2023-03-26T13:57:50.757Z,13.65
2023-03-26T14:02:59.321Z,13.59
2023-03-26T14:08:05.789Z,13.49
2023-03-26T14:13:17.691Z,13.42
2023-03-26T14:18:33.438Z,13.26
2023-03-26T14:24:17.155Z,13.13
2023-03-26T14:29:56.300Z,13.02
2023-03-26T14:35:11.811Z,12.84
2023-03-26T14:40:30.790Z,12.72
2023-03-26T14:46:05.340Z,12.60
2023-03-26T14:51:28.407Z,12.47
2023-03-26T14:56:53.613Z,12.31
2023-03-26T15:02:45.135Z,12.28
2023-03-26T15:08:33.536Z,12.16
2023-03-26T15:13:59.665Z,12.08
2023-03-26T15:19:38.116Z,12.04
2023-03-26T15:25:23.532Z,12.01
2023-03-26T15:31:07.184Z,11.89
2023-03-26T15:36:44.741Z,11.93
2023-03-26T15:41:56.840Z,11.90
2023-03-26T15:47:18.689Z,11.89
2023-03-26T15:52:31.447Z,11.82
2023-03-26T15:57:41.412Z,11.78
2023-03-26T16:02:54.736Z,11.74
2023-03-26T16:08:08.247Z,11.72
2023-03-26T16:13:37.817Z,11.74
2023-03-26T16:18:43.740Z,11.67
2023-03-26T16:23:58.201Z,11.63
2023-03-26T16:29:19.852Z,11.56
2023-03-26T16:34:29.755Z,11.54
2023-03-26T16:39:44.240Z,11.43
2023-03-26T16:44:58.583Z,11.31
2023-03-26T16:50:15.420Z,11.23
2023-03-26T16:55:34.541Z,11.20
2023-03-26T17:00:52.493Z,11.20
2023-03-26T17:06:06.525Z,11.04
2023-03-26T17:11:23.133Z,11.02
2023-03-26T17:16:43.984Z,10.98
2023-03-26T17:22:18.848Z,10.98
2023-03-26T17:27:34.328Z,10.95
2023-03-26T17:32:58.924Z,10.93
2023-03-26T17:38:02.772Z,10.89
2023-03-26T17:43:11.285Z,10.87
2023-03-26T17:48:20.083Z,10.88
2023-03-26T17:53:28.750Z,10.86
2023-03-26T17:58:38.437Z,10.86
2023-03-26T18:03:50.657Z,10.84
2023-03-26T18:09:10.941Z,10.77
2023-03-26T18:14:44.686Z,10.72
2023-03-26T18:19:51.387Z,10.66
2023-03-26T18:25:00.014Z,10.67
2023-03-26T18:30:16.778Z,10.64
2023-03-26T18:35:24.325Z,10.57
2023-03-26T18:40:31.985Z,10.54
2023-03-26T18:45:40.578Z,10.50
2023-03-26T18:50:44.163Z,10.46
2023-03-26T18:55:50.539Z,10.43
2023-03-26T19:00:59.910Z,10.41
2023-03-26T19:06:08.358Z,10.39
2023-03-26T19:11:13.513Z,10.37
2023-03-26T19:16:24.401Z,10.30
2023-03-26T19:21:28.494Z,10.27
2023-03-26T19:26:32.923Z,10.27
2023-03-26T19:31:40.353Z,10.24
2023-03-26T19:36:58.303Z,10.21
2023-03-26T19:42:09.059Z,10.15
2023-03-26T19:47:19.916Z,10.10
2023-03-26T19:52:26.217Z,10.08
2023-03-26T19:57:32.116Z,10.05
2023-03-26T20:02:42.053Z,10.00
2023-03-26T20:07:45.342Z,9.93
2023-03-26T20:12:48.975Z,9.86
2023-03-26T20:17:54.660Z,9.82
2023-03-26T20:22:58.538Z,9.75
2023-03-26T20:28:01.789Z,9.72
2023-03-26T20:33:12.380Z,9.70
2023-03-26T20:38:17.096Z,9.70
2023-03-26T20:43:24.156Z,9.66
2023-03-26T20:48:28.735Z,9.63
2023-03-26T20:53:31.934Z,9.59
2023-03-26T20:58:35.410Z,9.58
2023-03-26T21:03:40.856Z,9.52
2023-03-26T21:08:46.606Z,9.48
2023-03-26T21:13:57.007Z,9.48
2023-03-26T21:19:03.096Z,9.41
2023-03-26T21:24:13.390Z,9.40
2023-03-26T21:29:17.296Z,9.38
2023-03-26T21:34:22.524Z,9.40
2023-03-26T21:39:26.366Z,9.40
2023-03-26T21:44:30.373Z,9.35
2023-03-26T21:49:37.333Z,9.37
2023-03-26T21:54:43.338Z,9.33
2023-03-26T21:59:52.991Z,9.27
2023-03-26T22:05:02.204Z,9.24
2023-03-26T22:10:06.620Z,9.20
2023-03-26T22:15:13.756Z,9.18
2023-03-26T22:20:19.801Z,9.18
2023-03-26T22:25:24.781Z,9.16
2023-03-26T22:30:28.496Z,9.19
2023-03-26T22:35:33.046Z,9.14
2023-03-26T22:40:36.426Z,9.07
2023-03-26T22:45:39.629Z,8.99
2023-03-26T22:50:44.948Z,8.90
2023-03-26T22:55:48.223Z,8.79
2023-03-26T23:00:53.094Z,8.76
2023-03-26T23:05:59.136Z,8.64
2023-03-26T23:11:02.343Z,8.45
2023-03-26T23:16:06.853Z,8.35
2023-03-26T23:21:16.872Z,8.21
2023-03-26T23:26:20.219Z,8.02
2023-03-26T23:31:25.450Z,7.89
2023-03-26T23:36:30.115Z,7.80
2023-03-26T23:41:33.810Z,7.71
2023-03-26T23:46:37.363Z,7.66
2023-03-26T23:51:42.219Z,7.59
2023-03-26T23:56:45.455Z,7.54
